Time;durP1;ratioP1;P1;durP2;ratioP2;P2;SDS_P1;SDS_P2;PMS_P1;PMS_P2;Temp;Humidity;BMP_temperature;BMP_pressure;BME280_temperature;BME280_humidity;BME280_pressure;Samples;Min_cycle;Max_cycle;Signal;HPM_P1;HPM_P2
2023/12/22 00:02:20;;;;;;;15.70;7.00;;;;;;;8.92;74.49;95679.19;4442361;32;20097;-73
2023/12/22 00:04:47;;;;;;;15.38;7.28;;;;;;;9.02;73.91;95709.37;4456617;32;20097;-74
2023/12/22 00:07:13;;;;;;;15.68;7.07;;;;;;;9.02;74.50;95735.09;4456120;32;20462;-73
2023/12/22 00:09:40;;;;;;;14.90;6.53;;;;;;;8.93;76.22;95791.44;4442612;32;20073;-73
2023/12/22 00:12:07;;;;;;;;;;;;;;;8.59;79.22;95839.25;4456735;32;20105;-73
2023/12/22 00:14:34;;;;;;;13.80;6.57;;;;;;;8.65;79.60;95856.03;4456351;32;20025;-73
2023/12/22 00:17:01;;;;;;;;;;;;;;;8.34;82.17;95888.97;4442582;32;20089;-73
2023/12/22 00:19:28;;;;;;;11.12;4.00;;;;;;;8.46;82.87;95922.47;4456644;32;19969;-73
2023/12/22 00:21:55;;;;;;;8.93;3.45;;;;;;;8.24;85.15;95931.59;4455668;32;20108;-73
2023/12/22 00:24:22;;;;;;;13.73;4.75;;;;;;;8.04;89.02;95965.47;4456540;32;20111;-73
2023/12/22 00:26:48;;;;;;;;;;;;;;;8.28;86.79;96024.69;4456413;32;20161;-73
2023/12/22 00:29:15;;;;;;;10.60;4.35;;;;;;;7.75;87.41;96019.53;4456609;32;19977;-73
2023/12/22 00:31:46;;;;;;;13.13;5.07;;;;;;;7.34;89.82;96017.03;4456439;32;20097;-73
2023/12/22 00:34:12;;;;;;;12.32;4.95;;;;;;;7.34;90.15;95996.50;4456090;32;20097;-73
2023/12/22 00:36:39;;;;;;;;;;;;;;;7.57;88.17;95966.81;4442703;32;20107;-73
2023/12/22 00:39:07;;;;;;;11.38;5.25;;;;;;;7.50;89.92;95992.03;4456570;32;20025;-73
2023/12/22 00:45:01;;;;;;;;;;;;;;;;;;;;;
2023/12/22 00:47:34;;;;;;;11.02;5.00;;;;;;;7.34;86.42;95913.59;4455495;32;20104;-73
2023/12/22 00:50:02;;;;;;;11.77;4.65;;;;;;;8.13;83.81;95970.84;4442412;32;20142;-73
2023/12/22 00:52:29;;;;;;;10.88;4.62;;;;;;;8.50;81.21;95954.72;4456223;32;20096;-73
2023/12/22 00:54:56;;;;;;;10.77;4.47;;;;;;;8.20;81.26;95967.88;4441859;32;20150;-73
2023/12/22 00:57:23;;;;;;;11.52;4.78;;;;;;;8.20;80.50;95967.88;4456220;32;20433;-75
2023/12/22 00:59:50;;;;;;;10.10;4.05;;;;;;;7.98;82.12;95983.87;4456240;32;20526;-75
2023/12/22 01:05:17;;;;;;;10.20;4.12;;;;;;;7.81;83.75;95970.38;4457549;26;20488;-75
2023/12/22 01:12:24;;;;;;;;;;;;;;;;;;;;;
2023/12/22 01:19:05;;;;;;;7.78;2.70;;;;;;;8.80;81.71;95969.81;4352694;32;20107;-73
2023/12/22 01:21:32;;;;;;;9.13;2.60;;;;;;;8.04;85.72;95991.97;4440126;32;20790;-73
2023/12/22 01:23:59;;;;;;;6.00;2.53;;;;;;;8.34;83.91;95996.88;4440126;32;20104;-73
2023/12/22 01:26:25;;;;;;;6.28;2.20;;;;;;;8.22;85.34;96005.38;4440404;32;20089;-73
2023/12/22 01:28:52;;;;;;;6.45;2.37;;;;;;;7.92;86.24;96018.47;4440632;32;20112;-73
2023/12/22 01:34:01;;;;;;;4.97;1.90;;;;;;;8.20;85.68;96022.66;3689220;30;20089;-73
2023/12/22 01:36:28;;;;;;;4.18;1.70;;;;;;;8.19;86.27;96051.81;4455712;32;20092;-73
2023/12/22 01:38:55;;;;;;;;;;;;;;;7.86;88.48;96043.69;4455757;32;20194;-73
2023/12/22 01:41:21;;;;;;;3.58;1.58;;;;;;;7.45;91.75;96024.06;4455464;32;19992;-73
2023/12/22 01:43:48;;;;;;;;;;;;;;;7.78;91.07;96013.41;4456092;32;20103;-73
2023/12/22 01:46:15;;;;;;;4.62;1.33;;;;;;;7.82;90.80;95992.53;4455453;32;19990;-73
2023/12/22 01:48:42;;;;;;;4.30;1.42;;;;;;;8.00;89.86;95994.88;4455655;32;20134;-73
2023/12/22 01:51:09;;;;;;;3.17;1.30;;;;;;;8.34;86.63;95955.78;4441069;32;20097;-73
2023/12/22 01:53:36;;;;;;;3.72;1.37;;;;;;;7.83;84.71;95934.31;4455677;32;20096;-73
2023/12/22 01:56:06;;;;;;;3.87;1.23;;;;;;;7.86;83.91;95912.75;4455446;32;20169;-75
2023/12/22 01:58:35;;;;;;;1.08;0.62;;;;;;;7.63;83.58;95883.47;4441301;32;20115;-73
2023/12/22 02:01:02;;;;;;;3.70;0.80;;;;;;;7.62;84.37;95863.84;4441113;32;20085;-73
2023/12/22 02:03:30;;;;;;;1.95;0.70;;;;;;;7.55;83.42;95866.03;4455412;32;20143;-75
2023/12/22 02:05:57;;;;;;;3.40;0.50;;;;;;;7.34;84.00;95878.50;4454945;32;20483;-73
2023/12/22 02:08:26;;;;;;;0.57;0.50;;;;;;;7.54;82.20;95851.50;4455461;32;20108;-73
2023/12/22 02:10:52;;;;;;;1.73;0.62;;;;;;;7.53;82.40;95852.44;4455318;32;20537;-75
2023/12/22 02:13:19;;;;;;;1.52;0.60;;;;;;;7.03;83.70;95865.97;4455120;32;20135;-73
2023/12/22 02:15:49;;;;;;;1.95;0.43;;;;;;;7.45;82.79;95888.06;4455162;32;20131;-73
2023/12/22 02:18:22;;;;;;;2.70;0.70;;;;;;;7.41;84.29;95882.28;4455337;32;20452;-73
2023/12/22 02:20:49;;;;;;;1.52;0.30;;;;;;;7.09;85.93;95879.22;4441063;32;20084;-73
2023/12/22 02:23:16;;;;;;;2.55;1.08;;;;;;;7.20;86.68;95887.03;4454802;32;20138;-73
2023/12/22 02:25:43;;;;;;;;;;;;;;;7.26;87.29;95888.41;4455293;32;20168;-73
2023/12/22 02:28:14;;;;;;;1.73;0.60;;;;;;;7.19;87.87;95889.72;4454981;32;19991;-73
2023/12/22 02:30:47;;;;;;;2.10;0.43;;;;;;;7.07;88.71;95919.53;4441243;32;20104;-73
2023/12/22 02:33:15;;;;;;;0.50;0.50;;;;;;;7.13;88.46;95924.28;4453965;32;20076;-73
2023/12/22 02:35:43;;;;;;;1.00;0.70;;;;;;;7.06;88.45;95902.50;4440951;32;20097;-73
2023/12/22 02:38:10;;;;;;;2.65;0.50;;;;;;;6.97;86.36;95900.50;4441024;32;20419;-73
2023/12/22 02:40:37;;;;;;;1.75;0.65;;;;;;;6.65;86.70;95876.87;4454580;32;20103;-73
2023/12/22 02:43:05;;;;;;;2.00;0.50;;;;;;;6.67;82.86;95864.78;4440758;32;20081;-73
2023/12/22 02:45:32;;;;;;;0.75;0.30;;;;;;;6.83;81.24;95893.69;4456657;32;20161;-73
2023/12/22 02:47:59;;;;;;;1.65;0.57;;;;;;;6.82;81.71;95891.22;4442898;32;20168;-73
2023/12/22 02:50:26;;;;;;;0.73;0.30;;;;;;;6.70;81.18;95886.81;4457038;32;20085;-73
2023/12/22 02:52:53;;;;;;;;;;;;;;;6.52;82.03;95896.47;4457269;32;20144;-73
2023/12/22 02:55:20;;;;;;;0.30;0.30;;;;;;;6.58;81.31;95886.66;4456630;32;19984;-73
2023/12/22 02:57:46;;;;;;;4.40;0.70;;;;;;;6.58;80.42;95904.59;4457183;32;20101;-73
2023/12/22 03:00:14;;;;;;;1.75;0.50;;;;;;;6.79;78.93;95897.31;4456993;32;20093;-73
2023/12/22 03:02:41;;;;;;;0.30;0.30;;;;;;;6.83;78.53;95898.81;4456476;32;20472;-73
2023/12/22 03:05:08;;;;;;;;;;;;;;;6.96;76.47;95889.41;4443215;32;20209;-73
2023/12/22 03:07:35;;;;;;;1.65;0.52;;;;;;;7.06;75.63;95906.78;4457116;32;20360;-73
2023/12/22 03:10:01;;;;;;;;;;;;;;;6.88;76.03;95911.31;4456952;32;20431;-73
2023/12/22 03:12:28;;;;;;;0.90;0.40;;;;;;;7.01;74.49;95890.88;4456406;32;20024;-73
2023/12/22 03:14:55;;;;;;;;;;;;;;;6.86;75.55;95923.41;4457020;32;20085;-73
2023/12/22 03:17:22;;;;;;;1.70;0.55;;;;;;;6.83;76.19;95928.75;4456809;32;20018;-73
2023/12/22 03:19:49;;;;;;;1.60;0.40;;;;;;;6.76;77.20;95943.66;4456816;32;20081;-73
2023/12/22 03:22:15;;;;;;;;;;;;;;;6.92;77.71;95953.81;4456668;32;20072;-73
2023/12/22 03:24:43;;;;;;;1.65;0.55;;;;;;;6.71;77.91;95960.25;4456968;32;20311;-73
2023/12/22 03:27:10;;;;;;;0.22;0.20;;;;;;;6.75;77.82;95938.63;4456942;32;20097;-73
2023/12/22 03:29:36;;;;;;;;;;;;;;;6.80;77.08;95949.41;4456733;32;20093;-73
2023/12/22 03:35:17;;;;;;;;;;;;;;;;;;;;;
2023/12/22 03:39:19;;;;;;;0.55;0.30;;;;;;;7.01;73.63;95931.87;4456048;32;20202;-73
2023/12/22 03:42:32;;;;;;;0.90;0.40;;;;;;;6.89;72.26;95867.63;4353378;32;20526;-73
2023/12/22 03:44:59;;;;;;;5.37;0.40;;;;;;;6.92;70.44;95912.78;4382209;32;20101;-73
2023/12/22 03:47:26;;;;;;;0.95;0.50;;;;;;;7.24;70.88;95954.37;4456733;32;20112;-73
2023/12/22 03:49:53;;;;;;;1.77;0.52;;;;;;;7.02;71.69;95967.72;4456786;32;20112;-73
2023/12/22 03:52:20;;;;;;;0.52;0.30;;;;;;;7.12;70.92;95950.81;4429471;32;20123;-73
2023/12/22 03:54:47;;;;;;;0.28;0.28;;;;;;;7.25;69.76;95940.63;4456711;32;20081;-73
2023/12/22 03:57:14;;;;;;;0.73;0.10;;;;;;;7.08;69.61;95917.78;4455774;32;20450;-73
2023/12/22 03:59:41;;;;;;;0.25;0.20;;;;;;;6.98;70.12;95945.72;4456662;32;20088;-73
2023/12/22 04:02:08;;;;;;;0.40;0.30;;;;;;;6.88;70.51;95960.03;4456364;32;20085;-73
2023/12/22 04:04:38;;;;;;;0.50;0.32;;;;;;;6.83;71.08;95957.75;4456235;32;20124;-73
2023/12/22 04:07:05;;;;;;;2.53;0.50;;;;;;;6.61;70.93;95934.34;4456245;32;20114;-73
2023/12/22 04:09:32;;;;;;;0.45;0.35;;;;;;;6.82;70.53;95973.22;4456722;32;20111;-73
2023/12/22 04:16:12;;;;;;;1.10;0.40;;;;;;;6.55;69.04;95824.53;4405480;32;20618;-74
2023/12/22 04:18:39;;;;;;;0.20;0.20;;;;;;;6.50;68.85;95865.81;4407882;32;20563;-74
2023/12/22 04:21:05;;;;;;;0.22;0.20;;;;;;;7.10;68.30;95918.50;4408182;32;20176;-74
2023/12/22 04:23:32;;;;;;;0.90;0.43;;;;;;;6.85;69.10;95901.25;4407733;32;20097;-74
2023/12/22 04:26:01;;;;;;;0.35;0.35;;;;;;;6.80;67.66;95898.97;4407679;32;20090;-74
2023/12/22 04:28:28;;;;;;;1.33;0.28;;;;;;;6.83;67.43;95918.47;4408159;32;20115;-74
2023/12/22 04:30:55;;;;;;;1.52;0.40;;;;;;;6.90;66.91;95941.06;4408203;32;20606;-74
2023/12/22 04:33:22;;;;;;;;;;;;;;;6.68;67.35;95946.69;4407756;32;20120;-73
2023/12/22 04:35:49;;;;;;;0.43;0.30;;;;;;;7.01;65.75;95966.03;4408011;32;20325;-74
2023/12/22 04:38:15;;;;;;;;;;;;;;;7.13;65.38;95978.13;4408336;32;20170;-74
2023/12/22 04:40:42;;;;;;;0.60;0.40;;;;;;;7.09;65.13;95960.44;4407762;32;20314;-74
2023/12/22 04:43:09;;;;;;;0.35;0.35;;;;;;;6.93;65.84;95975.97;4408019;32;20114;-74
2023/12/22 04:45:36;;;;;;;0.40;0.30;;;;;;;6.93;65.78;95973.41;4407827;32;20090;-74
2023/12/22 04:48:03;;;;;;;0.30;0.30;;;;;;;7.20;64.67;95981.94;4395255;32;20113;-74
2023/12/22 04:50:30;;;;;;;1.00;0.30;;;;;;;7.05;65.30;95994.91;4407996;32;20114;-74
2023/12/22 04:52:57;;;;;;;;;;;;;;;6.86;66.55;95996.00;4433044;32;20093;-74
2023/12/22 04:55:24;;;;;;;1.65;0.52;;;;;;;7.13;65.01;95979.88;4440422;32;20478;-74
2023/12/22 04:57:50;;;;;;;;;;;;;;;7.35;64.73;95974.22;4441024;32;20444;-74
2023/12/22 05:00:17;;;;;;;0.30;0.30;;;;;;;7.19;64.75;95935.88;4440886;32;20283;-74
2023/12/22 05:02:44;;;;;;;1.17;0.50;;;;;;;7.30;64.67;95932.63;4440285;32;20089;-74
2023/12/22 05:05:11;;;;;;;;;;;;;;;7.00;66.03;95990.03;4441012;32;20073;-74
2023/12/22 05:07:40;;;;;;;0.93;0.43;;;;;;;7.14;65.77;96007.16;4438246;32;19992;-74
2023/12/22 05:10:07;;;;;;;1.37;0.50;;;;;;;6.89;65.96;96018.06;4440747;32;20097;-74
2023/12/22 05:12:34;;;;;;;1.83;0.40;;;;;;;7.00;65.92;96025.13;4440445;32;20086;-74
2023/12/22 05:15:01;;;;;;;2.40;0.60;;;;;;;6.89;66.46;96020.63;4440362;32;20073;-74
2023/12/22 05:17:28;;;;;;;2.20;0.40;;;;;;;6.92;66.08;96040.97;4440736;32;20098;-74
2023/12/22 05:19:55;;;;;;;1.40;0.40;;;;;;;6.71;67.01;96053.31;4440559;32;20158;-74
2023/12/22 05:30:49;;;;;;;0.82;0.47;;;;;;;7.07;65.37;96049.47;4012820;30;20444;-74
2023/12/22 05:33:16;;;;;;;1.52;0.37;;;;;;;6.84;66.53;96087.56;4441945;32;20089;-74
2023/12/22 05:35:43;;;;;;;;;;;;;;;6.69;67.00;96116.63;4455759;32;20093;-74
2023/12/22 05:38:10;;;;;;;2.03;0.40;;;;;;;6.58;67.46;96113.87;4456096;32;19980;-74
2023/12/22 05:40:36;;;;;;;2.87;0.40;;;;;;;6.38;68.58;96120.97;4455835;32;20108;-74
2023/12/22 05:43:03;;;;;;;1.27;0.40;;;;;;;6.67;67.39;96119.28;4455097;32;20097;-74
2023/12/22 05:45:30;;;;;;;0.45;0.37;;;;;;;6.55;68.08;96108.94;4455520;32;20432;-74
2023/12/22 05:47:57;;;;;;;;;;;;;;;6.76;67.14;96122.25;4456023;32;20103;-74
2023/12/22 05:50:24;;;;;;;2.03;0.40;;;;;;;6.90;66.82;96147.91;4455460;32;19977;-74
2023/12/22 05:52:51;;;;;;;;;;;;;;;6.50;67.90;96147.66;4455847;32;20150;-74
2023/12/22 05:55:18;;;;;;;1.60;0.50;;;;;;;6.69;67.79;96147.41;4455690;32;19982;-74
2023/12/22 05:57:45;;;;;;;4.07;0.65;;;;;;;6.88;66.81;96145.44;4455264;32;20093;-74
2023/12/22 06:00:15;;;;;;;8.20;1.20;;;;;;;7.10;66.19;96141.59;4455589;32;20523;-74
2023/12/22 06:02:42;;;;;;;9.85;2.15;;;;;;;7.28;65.58;96144.81;4484148;26;20478;-74
2023/12/22 06:05:09;;;;;;;1.45;0.40;;;;;;;6.94;66.81;96145.06;4470866;32;20099;-74
2023/12/22 06:07:36;;;;;;;1.15;0.40;;;;;;;6.64;67.66;96160.47;4470991;32;20435;-74
2023/12/22 06:10:03;;;;;;;0.80;0.45;;;;;;;6.45;68.87;96143.69;4470956;32;20101;-75
2023/12/22 06:12:30;;;;;;;0.62;0.47;;;;;;;6.48;69.00;96134.06;4470446;32;20088;-74
2023/12/22 06:14:57;;;;;;;2.35;0.77;;;;;;;6.53;68.94;96121.00;4470886;32;20424;-74
2023/12/22 06:17:24;;;;;;;;;;;;;;;6.42;69.87;96118.25;4457144;32;20170;-74
2023/12/22 06:19:51;;;;;;;1.55;0.62;;;;;;;6.54;69.34;96112.41;4471788;32;19987;-74
2023/12/22 06:22:18;;;;;;;1.17;0.77;;;;;;;6.29;69.94;96088.19;4472748;32;20107;-74
2023/12/22 06:24:45;;;;;;;2.20;0.70;;;;;;;6.34;69.87;96087.94;4472400;32;20080;-74
2023/12/22 06:27:11;;;;;;;;;;;;;;;6.05;71.06;96099.81;4473162;32;20097;-74
2023/12/22 06:29:38;;;;;;;3.65;0.98;;;;;;;6.38;70.08;96097.09;4472907;32;20289;-74
2023/12/22 06:32:06;;;;;;;;;;;;;;;6.32;70.22;96112.81;4458600;32;20166;-74
2023/12/22 06:34:33;;;;;;;0.40;0.40;;;;;;;5.92;71.96;96137.25;4458875;32;20061;-74
2023/12/22 06:37:00;;;;;;;1.00;0.50;;;;;;;5.80;72.86;96118.22;4472496;32;20119;-74
2023/12/22 06:39:27;;;;;;;;;;;;;;;6.08;71.44;96122.69;4472852;32;20525;-74
2023/12/22 06:41:54;;;;;;;2.33;0.45;;;;;;;5.97;71.77;96112.22;4472614;32;20043;-74
2023/12/22 06:44:20;;;;;;;1.10;0.50;;;;;;;6.12;71.35;96110.53;4472609;32;20127;-74
2023/12/22 06:46:47;;;;;;;1.90;0.57;;;;;;;6.31;69.88;96106.03;4472282;32;20097;-74
2023/12/22 06:49:14;;;;;;;2.58;0.43;;;;;;;6.38;69.34;96110.75;4472749;32;20108;-74
2023/12/22 06:51:41;;;;;;;1.70;0.50;;;;;;;6.04;70.71;96131.44;4472707;32;20140;-74
2023/12/22 06:54:08;;;;;;;;;;;;;;;6.14;70.50;96124.91;4472153;32;20102;-74
2023/12/22 06:56:39;;;;;;;2.15;0.70;;;;;;;6.18;70.09;96120.44;4472687;32;19986;-74
2023/12/22 06:59:06;;;;;;;1.15;0.50;;;;;;;5.90;70.64;96131.34;4472812;32;20443;-74
2023/12/22 07:01:34;;;;;;;1.08;0.40;;;;;;;5.97;70.38;96164.25;4472294;32;20088;-74
2023/12/22 07:04:03;;;;;;;0.82;0.40;;;;;;;6.28;69.53;96175.37;4458163;32;20073;-74
2023/12/22 07:06:32;;;;;;;1.25;0.55;;;;;;;6.32;69.26;96187.09;4458347;32;20105;-74
2023/12/22 07:09:11;;;;;;;1.58;0.93;;;;;;;6.64;68.06;96201.50;4458342;32;20164;-74
2023/12/22 07:11:39;;;;;;;0.50;0.40;;;;;;;6.85;66.79;96196.06;4472663;32;20147;-74
2023/12/22 07:14:07;;;;;;;4.05;0.80;;;;;;;6.92;66.45;96210.19;4458095;32;20089;-74
2023/12/22 07:16:35;;;;;;;1.65;0.70;;;;;;;7.33;65.45;96196.66;4472370;32;20135;-74
2023/12/22 07:19:02;;;;;;;2.15;0.60;;;;;;;7.72;63.84;96183.19;4472584;32;20105;-74
2023/12/22 07:21:29;;;;;;;1.58;0.70;;;;;;;7.79;63.08;96185.31;4472034;32;20159;-74
2023/12/22 07:23:57;;;;;;;3.65;1.17;;;;;;;7.77;62.89;96164.03;4472253;32;20124;-74
2023/12/22 07:26:26;;;;;;;3.10;1.05;;;;;;;7.06;64.84;96171.75;4472365;32;20425;-74
2023/12/22 07:28:53;;;;;;;2.70;1.08;;;;;;;6.76;65.96;96188.88;4458235;32;20111;-74
2023/12/22 07:31:20;;;;;;;3.60;1.25;;;;;;;6.67;66.42;96185.94;4471608;32;20103;-74
2023/12/22 07:33:48;;;;;;;2.58;0.90;;;;;;;6.65;66.56;96185.19;4472046;32;20073;-74
2023/12/22 07:36:15;;;;;;;3.53;1.10;;;;;;;6.49;66.59;96188.72;4471937;32;20105;-74
2023/12/22 07:38:42;;;;;;;2.90;0.73;;;;;;;6.60;66.45;96171.84;4458478;32;20149;-74
2023/12/22 07:41:09;;;;;;;2.67;1.00;;;;;;;6.96;65.21;96203.97;4472421;32;20084;-74
2023/12/22 07:43:38;;;;;;;4.82;1.08;;;;;;;7.33;64.05;96200.06;4457845;32;20144;-74
2023/12/22 07:46:05;;;;;;;1.42;0.52;;;;;;;7.24;63.73;96196.31;4472089;32;20202;-74
2023/12/22 07:48:32;;;;;;;3.17;0.90;;;;;;;7.53;62.18;96202.25;4472450;32;20111;-74
2023/12/22 07:50:59;;;;;;;1.62;0.73;;;;;;;8.12;60.37;96215.78;4471851;32;20484;-74
2023/12/22 07:53:26;;;;;;;1.35;0.60;;;;;;;7.84;60.98;96216.66;4472139;32;20081;-74
2023/12/22 07:55:52;;;;;;;;;;;;;;;7.70;61.83;96226.94;4472147;32;20108;-74
2023/12/22 07:58:19;;;;;;;4.47;0.90;;;;;;;8.00;59.68;96219.13;4472471;32;20041;-74
2023/12/22 08:00:46;;;;;;;1.65;0.70;;;;;;;8.33;60.01;96223.06;4472148;32;20092;-74
2023/12/22 08:03:13;;;;;;;2.80;0.80;;;;;;;8.70;58.36;96224.16;4471499;32;20149;-74
2023/12/22 08:05:40;;;;;;;1.75;1.00;;;;;;;8.80;57.57;96243.22;4472025;32;20119;-74
2023/12/22 08:08:07;;;;;;;1.80;0.65;;;;;;;8.90;57.73;96256.31;4472221;32;20101;-74
2023/12/22 08:10:34;;;;;;;;;;;;;;;8.80;57.19;96274.06;4472101;32;20084;-74
2023/12/22 08:13:01;;;;;;;1.60;0.68;;;;;;;8.94;57.47;96279.19;4472092;32;19979;-74
2023/12/22 08:15:28;;;;;;;1.08;0.52;;;;;;;9.11;56.71;96277.25;4471990;32;20129;-74
2023/12/22 08:18:03;;;;;;;1.05;0.50;;;;;;;9.54;55.14;96259.81;4471821;32;20149;-74
2023/12/22 08:20:30;;;;;;;2.78;0.52;;;;;;;9.01;56.12;96253.03;4472073;32;20143;-74
2023/12/22 08:23:03;;;;;;;0.75;0.47;;;;;;;8.87;57.79;96257.34;4471917;32;20133;-74
2023/12/22 08:25:36;;;;;;;0.73;0.40;;;;;;;8.73;58.25;96256.59;4471663;32;20100;-74
2023/12/22 08:28:04;;;;;;;1.80;0.80;;;;;;;8.61;58.66;96253.03;4472336;32;20090;-74
2023/12/22 08:30:31;;;;;;;2.45;0.60;;;;;;;8.38;60.28;96260.44;4471875;32;20084;-74
2023/12/22 08:32:58;;;;;;;3.47;0.80;;;;;;;8.51;59.38;96263.09;4471392;32;20146;-74
2023/12/22 08:35:25;;;;;;;0.75;0.60;;;;;;;8.12;60.08;96272.28;4471892;32;20123;-74
2023/12/22 08:37:52;;;;;;;0.70;0.55;;;;;;;7.73;60.56;96267.00;4471942;32;20115;-74
2023/12/22 08:40:25;;;;;;;1.55;0.40;;;;;;;8.22;60.96;96266.59;4471723;32;20205;-74
2023/12/22 08:42:59;;;;;;;1.02;0.43;;;;;;;8.12;60.54;96226.06;4457664;32;20145;-74
2023/12/22 08:45:30;;;;;;;1.17;0.65;;;;;;;8.61;58.99;96235.03;4457610;32;20119;-74
2023/12/22 08:47:57;;;;;;;1.10;0.50;;;;;;;8.44;58.35;96245.56;4472008;32;20522;-81
2023/12/22 08:50:25;;;;;;;1.75;0.50;;;;;;;8.27;58.74;96255.09;4471768;32;20114;-81
2023/12/22 08:52:52;;;;;;;1.77;0.75;;;;;;;8.64;57.76;96271.66;4471173;32;20131;-82
2023/12/22 08:55:19;;;;;;;0.88;0.35;;;;;;;9.41;54.77;96254.66;4471775;32;20096;-81
2023/12/22 08:57:46;;;;;;;1.20;0.43;;;;;;;9.72;54.02;96271.44;4471724;32;20108;-74
2023/12/22 09:00:25;;;;;;;1.40;0.40;;;;;;;9.85;53.11;96266.28;4471494;32;20084;-76
2023/12/22 09:02:51;;;;;;;;;;;;;;;9.54;52.92;96260.63;4471794;32;20160;-76
2023/12/22 09:05:20;;;;;;;1.58;0.40;;;;;;;9.18;54.59;96271.63;4471646;32;20255;-76
2023/12/22 09:07:47;;;;;;;1.52;0.50;;;;;;;8.98;54.38;96278.06;4471524;32;20143;-76
2023/12/22 09:10:15;;;;;;;0.98;0.37;;;;;;;8.59;56.26;96278.81;4471678;32;20099;-76
2023/12/22 09:12:42;;;;;;;1.15;0.60;;;;;;;8.96;56.40;96269.62;4457664;32;20439;-76
2023/12/22 09:15:09;;;;;;;2.50;0.70;;;;;;;9.17;54.68;96277.69;4471364;32;20235;-76
2023/12/22 09:17:36;;;;;;;;;;;;;;;8.84;55.95;96279.88;4471938;32;20451;-77
2023/12/22 09:20:03;;;;;;;2.13;0.60;;;;;;;8.43;56.33;96273.00;4471468;32;20043;-76
2023/12/22 09:22:30;;;;;;;0.55;0.40;;;;;;;8.56;57.83;96271.31;4471575;32;20090;-76
2023/12/22 09:24:57;;;;;;;0.88;0.60;;;;;;;8.52;58.33;96272.44;4471466;32;20089;-76
2023/12/22 09:27:28;;;;;;;2.10;0.55;;;;;;;8.64;58.52;96276.00;4471361;32;20088;-77
2023/12/22 09:29:55;;;;;;;1.10;0.60;;;;;;;8.47;59.41;96291.63;4471520;32;20431;-77
2023/12/22 09:32:22;;;;;;;2.08;0.62;;;;;;;8.37;59.74;96278.53;4471537;32;20092;-76
2023/12/22 09:34:49;;;;;;;3.35;0.50;;;;;;;7.81;59.77;96281.03;4471030;32;20625;-76
2023/12/22 09:37:16;;;;;;;1.87;0.60;;;;;;;7.69;60.88;96279.19;4471444;32;20087;-76
2023/12/22 09:39:43;;;;;;;;;;;;;;;8.00;60.50;96272.22;4471699;32;20140;-76
2023/12/22 09:42:09;;;;;;;0.50;0.40;;;;;;;8.29;60.35;96258.41;4471075;32;20341;-76
2023/12/22 09:44:36;;;;;;;;;;;;;;;8.51;58.79;96255.38;4471509;32;20093;-77
2023/12/22 09:47:04;;;;;;;1.33;0.55;;;;;;;8.85;57.75;96266.09;4471313;32;19976;-77
2023/12/22 09:49:33;;;;;;;1.15;0.60;;;;;;;9.32;54.81;96251.87;4471129;32;20080;-77
2023/12/22 09:52:02;;;;;;;3.05;0.70;;;;;;;10.24;52.93;96231.00;4471232;32;20363;-77
2023/12/22 09:54:31;;;;;;;2.15;0.50;;;;;;;10.43;51.28;96237.34;4456582;32;20156;-77
2023/12/22 09:57:00;;;;;;;1.87;0.50;;;;;;;10.68;50.18;96233.84;4456706;32;20612;-77
2023/12/22 09:59:45;;;;;;;1.37;0.45;;;;;;;10.23;50.65;96242.25;4459031;32;20196;-77
2023/12/22 10:02:12;;;;;;;0.32;0.32;;;;;;;10.39;49.70;96233.31;4456733;32;20080;-77
2023/12/22 10:04:39;;;;;;;0.73;0.40;;;;;;;10.16;50.28;96218.63;4470788;32;20097;-77
2023/12/22 10:07:07;;;;;;;0.32;0.30;;;;;;;10.03;50.02;96230.72;4470939;32;20161;-77
2023/12/22 10:09:35;;;;;;;1.27;0.40;;;;;;;9.09;53.24;96254.19;4456996;32;20141;-77
2023/12/22 10:12:03;;;;;;;1.45;0.70;;;;;;;8.45;55.35;96252.34;4456950;32;20102;-77
2023/12/22 10:14:31;;;;;;;1.35;0.57;;;;;;;8.62;56.18;96249.56;4456851;32;20214;-76
2023/12/22 10:16:58;;;;;;;2.87;0.57;;;;;;;8.74;56.86;96253.91;4456512;32;20128;-76
2023/12/22 10:19:25;;;;;;;0.45;0.37;;;;;;;8.78;57.50;96245.06;4470910;32;20081;-76
2023/12/22 10:21:52;;;;;;;0.80;0.50;;;;;;;8.48;58.07;96258.13;4470878;32;20148;-77
2023/12/22 10:24:46;;;;;;;1.05;0.62;;;;;;;8.36;57.08;96240.91;4470308;32;20113;-76
2023/12/22 10:27:16;;;;;;;0.40;0.40;;;;;;;8.45;57.44;96258.31;4470870;32;20097;-76
2023/12/22 10:29:43;;;;;;;1.12;0.52;;;;;;;9.09;57.15;96273.97;4470660;32;20181;-76
2023/12/22 10:32:10;;;;;;;;;;;;;;;8.71;56.22;96272.09;4470753;32;20139;-77
2023/12/22 10:34:37;;;;;;;1.83;0.50;;;;;;;9.20;56.35;96269.75;4470702;32;20002;-77
2023/12/22 10:37:04;;;;;;;0.62;0.37;;;;;;;9.28;55.37;96272.66;4470540;32;20097;-76
2023/12/22 10:39:32;;;;;;;0.30;0.30;;;;;;;9.49;54.87;96249.81;4470502;32;20371;-76
2023/12/22 10:41:59;;;;;;;1.17;0.40;;;;;;;9.67;52.03;96249.50;4470599;32;20383;-76
2023/12/22 10:44:27;;;;;;;1.27;0.30;;;;;;;10.03;50.52;96254.72;4456059;32;20415;-77
2023/12/22 10:46:54;;;;;;;1.10;0.43;;;;;;;10.20;51.24;96260.47;4470333;32;20116;-77
2023/12/22 10:49:22;;;;;;;0.43;0.30;;;;;;;10.55;49.59;96252.88;4470638;32;20420;-77
2023/12/22 10:51:50;;;;;;;1.87;0.32;;;;;;;10.23;49.95;96243.09;4456140;32;20081;-77
2023/12/22 10:54:18;;;;;;;0.20;0.20;;;;;;;9.63;48.90;96253.22;4470394;32;20089;-77
2023/12/22 10:56:45;;;;;;;0.62;0.20;;;;;;;9.74;48.85;96243.84;4470273;32;20093;-76
2023/12/22 10:59:13;;;;;;;1.65;0.47;;;;;;;9.65;50.43;96277.94;4456156;32;20390;-76
2023/12/22 11:01:40;;;;;;;1.17;0.40;;;;;;;9.44;50.27;96254.44;4470241;32;20476;-76
2023/12/22 11:04:10;;;;;;;0.98;0.40;;;;;;;9.48;50.04;96260.22;4469788;32;20092;-76
2023/12/22 11:06:37;;;;;;;0.20;0.20;;;;;;;9.89;49.79;96244.56;4470932;32;20149;-76
2023/12/22 11:09:09;;;;;;;1.55;0.45;;;;;;;9.83;48.62;96252.69;4458557;32;20088;-77
2023/12/22 11:11:38;;;;;;;0.88;0.43;;;;;;;9.15;49.54;96247.84;4472587;32;20081;-76
2023/12/22 11:14:06;;;;;;;0.47;0.30;;;;;;;9.02;51.14;96254.69;4472206;32;20111;-76
2023/12/22 11:16:34;;;;;;;1.75;0.40;;;;;;;8.62;52.01;96258.09;4472524;32;20097;-76
2023/12/22 11:19:02;;;;;;;2.65;1.00;;;;;;;8.52;53.84;96258.78;4472661;32;20085;-76
2023/12/22 11:21:30;;;;;;;1.25;0.62;;;;;;;8.69;55.27;96277.31;4472086;32;20164;-76
2023/12/22 11:23:57;;;;;;;1.80;0.77;;;;;;;8.54;54.80;96268.03;4472379;32;20153;-76
2023/12/22 11:26:25;;;;;;;1.02;0.50;;;;;;;8.40;54.56;96243.19;4472011;32;20092;-76
2023/12/22 11:28:52;;;;;;;1.05;0.70;;;;;;;8.25;56.63;96264.66;4472495;32;20436;-77
2023/12/22 11:31:20;;;;;;;0.93;0.60;;;;;;;8.39;56.56;96274.94;4458310;32;20500;-77
2023/12/22 11:33:49;;;;;;;2.60;0.75;;;;;;;8.60;56.38;96275.34;4445218;32;20115;-76
2023/12/22 11:36:31;;;;;;;3.62;1.20;;;;;;;8.48;56.36;96280.41;4459876;32;20092;-76
2023/12/22 11:38:59;;;;;;;7.20;2.55;;;;;;;8.80;56.01;96255.25;4458434;32;20093;-76
2023/12/22 11:41:29;;;;;;;0.50;0.50;;;;;;;9.23;53.05;96266.97;4457948;32;20111;-76
2023/12/22 11:43:57;;;;;;;1.60;0.70;;;;;;;9.11;52.27;96266.97;4458584;32;20148;-76
2023/12/22 11:46:24;;;;;;;0.43;0.37;;;;;;;8.98;53.89;96267.75;4472241;32;20111;-76
2023/12/22 11:48:52;;;;;;;1.30;0.50;;;;;;;8.45;54.13;96268.59;4472070;32;20148;-76
2023/12/22 11:51:20;;;;;;;3.45;0.68;;;;;;;8.40;54.92;96260.38;4472260;32;20085;-76
2023/12/22 11:53:46;;;;;;;0.90;0.40;;;;;;;8.41;55.68;96256.88;4472209;32;20149;-76
2023/12/22 11:56:13;;;;;;;;;;;;;;;8.44;54.83;96253.28;4472154;32;20119;-76
2023/12/22 11:58:53;;;;;;;3.53;0.70;;;;;;;8.07;55.75;96261.47;4472258;32;19972;-76
2023/12/22 12:01:23;;;;;;;6.22;1.17;;;;;;;8.06;56.18;96274.41;4472227;32;20355;-76
2023/12/22 12:04:01;;;;;;;2.15;0.50;;;;;;;7.66;57.11;96281.13;4457956;32;20153;-76
2023/12/22 12:06:29;;;;;;;5.45;1.45;;;;;;;7.68;57.60;96261.31;4458244;32;20519;-76
2023/12/22 12:08:56;;;;;;;9.35;2.17;;;;;;;8.22;56.87;96266.59;4472011;32;20175;-76
2023/12/22 12:11:24;;;;;;;2.15;0.88;;;;;;;8.23;55.72;96253.66;4472180;32;20513;-76
2023/12/22 12:13:51;;;;;;;1.50;0.75;;;;;;;8.10;56.66;96263.88;4472194;32;20420;-76
2023/12/22 12:16:21;;;;;;;0.30;0.30;;;;;;;7.99;55.60;96230.31;4471490;32;20567;-77
2023/12/22 12:18:48;;;;;;;2.25;0.85;;;;;;;7.58;56.32;96239.69;4457952;32;20171;-76
2023/12/22 12:21:15;;;;;;;;;;;;;;;7.50;57.19;96258.91;4458298;32;20163;-76
2023/12/22 12:23:42;;;;;;;2.37;0.40;;;;;;;7.36;58.25;96269.16;4471655;32;19968;-76
2023/12/22 12:26:11;;;;;;;1.70;0.65;;;;;;;7.33;58.27;96263.38;4471874;32;20493;-76
2023/12/22 12:28:38;;;;;;;6.95;1.45;;;;;;;7.42;58.83;96262.84;4472124;32;20092;-76
2023/12/22 12:31:06;;;;;;;12.80;3.08;;;;;;;7.17;60.24;96241.19;4457560;32;20398;-76
2023/12/22 12:33:35;;;;;;;5.28;1.52;;;;;;;7.17;60.46;96261.69;4472037;32;20459;-76